sensor_id;sensor_type;location;lat;lon;timestamp;P1;durP1;ratioP1;P2;durP2;ratioP2
23676;SDS011;31493;49.058;12.190;2022-10-18T00:00:34;25.90;;;19.98;;
23676;SDS011;31493;49.058;12.190;2022-10-18T00:03:01;29.23;;;20.38;;
23676;SDS011;31493;49.058;12.190;2022-10-18T00:05:29;27.83;;;20.50;;
23676;SDS011;31493;49.058;12.190;2022-10-18T00:07:57;30.25;;;20.83;;
23676;SDS011;31493;49.058;12.190;2022-10-18T00:10:24;34.22;;;20.75;;
23676;SDS011;31493;49.058;12.190;2022-10-18T00:12:51;29.67;;;21.27;;
23676;SDS011;31493;49.058;12.190;2022-10-18T00:15:18;30.65;;;21.20;;
23676;SDS011;31493;49.058;12.190;2022-10-18T00:17:45;34.25;;;22.15;;
23676;SDS011;31493;49.058;12.190;2022-10-18T00:20:12;34.15;;;21.90;;
23676;SDS011;31493;49.058;12.190;2022-10-18T00:22:39;28.27;;;20.45;;
23676;SDS011;31493;49.058;12.190;2022-10-18T00:25:08;31.27;;;22.15;;
23676;SDS011;31493;49.058;12.190;2022-10-18T00:27:36;31.35;;;21.13;;
23676;SDS011;31493;49.058;12.190;2022-10-18T00:30:03;31.50;;;21.73;;
23676;SDS011;31493;49.058;12.190;2022-10-18T00:32:34;34.00;;;21.20;;
23676;SDS011;31493;49.058;12.190;2022-10-18T00:35:02;35.03;;;22.55;;
23676;SDS011;31493;49.058;12.190;2022-10-18T00:37:30;32.92;;;21.77;;
23676;SDS011;31493;49.058;12.190;2022-10-18T00:39:58;32.03;;;22.13;;
23676;SDS011;31493;49.058;12.190;2022-10-18T00:42:28;37.13;;;23.00;;
23676;SDS011;31493;49.058;12.190;2022-10-18T00:45:12;33.42;;;21.88;;
23676;SDS011;31493;49.058;12.190;2022-10-18T00:47:42;35.80;;;22.73;;
23676;SDS011;31493;49.058;12.190;2022-10-18T00:50:12;35.75;;;23.15;;
23676;SDS011;31493;49.058;12.190;2022-10-18T00:52:41;36.70;;;24.38;;
23676;SDS011;31493;49.058;12.190;2022-10-18T00:55:11;41.03;;;25.48;;
23676;SDS011;31493;49.058;12.190;2022-10-18T00:57:40;35.35;;;23.23;;
23676;SDS011;31493;49.058;12.190;2022-10-18T01:00:10;38.22;;;24.70;;
23676;SDS011;31493;49.058;12.190;2022-10-18T01:02:39;40.83;;;25.67;;
23676;SDS011;31493;49.058;12.190;2022-10-18T01:10:46;42.38;;;27.65;;
23676;SDS011;31493;49.058;12.190;2022-10-18T01:13:25;44.60;;;27.50;;
23676;SDS011;31493;49.058;12.190;2022-10-18T01:16:02;41.20;;;26.70;;
23676;SDS011;31493;49.058;12.190;2022-10-18T01:18:36;42.13;;;27.75;;
23676;SDS011;31493;49.058;12.190;2022-10-18T01:21:11;41.35;;;25.60;;
23676;SDS011;31493;49.058;12.190;2022-10-18T01:23:54;42.15;;;26.88;;
23676;SDS011;31493;49.058;12.190;2022-10-18T01:26:38;42.15;;;26.40;;
23676;SDS011;31493;49.058;12.190;2022-10-18T01:29:21;37.78;;;25.73;;
23676;SDS011;31493;49.058;12.190;2022-10-18T01:31:57;40.35;;;25.67;;
23676;SDS011;31493;49.058;12.190;2022-10-18T01:34:28;40.38;;;26.13;;
23676;SDS011;31493;49.058;12.190;2022-10-18T01:36:59;48.70;;;27.92;;
23676;SDS011;31493;49.058;12.190;2022-10-18T01:39:29;42.03;;;27.40;;
23676;SDS011;31493;49.058;12.190;2022-10-18T01:42:00;42.97;;;27.25;;
23676;SDS011;31493;49.058;12.190;2022-10-18T01:44:31;43.95;;;27.73;;
23676;SDS011;31493;49.058;12.190;2022-10-18T01:47:00;44.65;;;29.00;;
23676;SDS011;31493;49.058;12.190;2022-10-18T01:49:30;50.42;;;28.92;;
23676;SDS011;31493;49.058;12.190;2022-10-18T01:51:58;45.13;;;29.48;;
23676;SDS011;31493;49.058;12.190;2022-10-18T01:54:26;55.53;;;30.05;;
23676;SDS011;31493;49.058;12.190;2022-10-18T01:56:59;50.83;;;32.35;;
23676;SDS011;31493;49.058;12.190;2022-10-18T01:59:32;53.38;;;31.95;;
23676;SDS011;31493;49.058;12.190;2022-10-18T02:02:11;51.13;;;30.83;;
23676;SDS011;31493;49.058;12.190;2022-10-18T02:04:45;52.60;;;32.85;;
23676;SDS011;31493;49.058;12.190;2022-10-18T02:07:19;52.72;;;31.73;;
23676;SDS011;31493;49.058;12.190;2022-10-18T02:09:57;54.40;;;33.05;;
23676;SDS011;31493;49.058;12.190;2022-10-18T02:12:28;55.90;;;33.22;;
23676;SDS011;31493;49.058;12.190;2022-10-18T02:14:58;57.25;;;33.83;;
23676;SDS011;31493;49.058;12.190;2022-10-18T02:17:29;56.95;;;33.80;;
23676;SDS011;31493;49.058;12.190;2022-10-18T02:19:57;61.10;;;33.17;;
23676;SDS011;31493;49.058;12.190;2022-10-18T02:22:28;55.72;;;33.10;;
23676;SDS011;31493;49.058;12.190;2022-10-18T02:24:58;56.38;;;31.85;;
23676;SDS011;31493;49.058;12.190;2022-10-18T02:27:29;54.28;;;33.70;;
23676;SDS011;31493;49.058;12.190;2022-10-18T02:29:56;52.83;;;31.05;;
23676;SDS011;31493;49.058;12.190;2022-10-18T02:32:25;63.22;;;34.83;;
23676;SDS011;31493;49.058;12.190;2022-10-18T02:35:01;56.95;;;33.85;;
23676;SDS011;31493;49.058;12.190;2022-10-18T02:37:33;66.22;;;38.85;;
23676;SDS011;31493;49.058;12.190;2022-10-18T02:40:05;63.67;;;37.05;;
23676;SDS011;31493;49.058;12.190;2022-10-18T02:42:34;64.97;;;37.20;;
23676;SDS011;31493;49.058;12.190;2022-10-18T02:45:02;65.90;;;37.60;;
23676;SDS011;31493;49.058;12.190;2022-10-18T02:47:32;66.65;;;39.50;;
23676;SDS011;31493;49.058;12.190;2022-10-18T02:49:59;79.35;;;41.58;;
23676;SDS011;31493;49.058;12.190;2022-10-18T02:52:26;73.18;;;38.03;;
23676;SDS011;31493;49.058;12.190;2022-10-18T02:54:53;71.35;;;38.38;;
23676;SDS011;31493;49.058;12.190;2022-10-18T02:57:20;69.72;;;39.10;;
23676;SDS011;31493;49.058;12.190;2022-10-18T02:59:47;63.75;;;36.20;;
23676;SDS011;31493;49.058;12.190;2022-10-18T03:02:14;67.47;;;36.22;;
23676;SDS011;31493;49.058;12.190;2022-10-18T03:04:42;60.95;;;35.05;;
23676;SDS011;31493;49.058;12.190;2022-10-18T03:07:10;57.83;;;34.65;;
23676;SDS011;31493;49.058;12.190;2022-10-18T03:09:36;63.50;;;36.67;;
23676;SDS011;31493;49.058;12.190;2022-10-18T03:12:04;74.03;;;38.47;;
23676;SDS011;31493;49.058;12.190;2022-10-18T03:14:31;66.43;;;37.00;;
23676;SDS011;31493;49.058;12.190;2022-10-18T03:16:58;69.47;;;36.25;;
23676;SDS011;31493;49.058;12.190;2022-10-18T03:19:25;76.32;;;37.83;;
23676;SDS011;31493;49.058;12.190;2022-10-18T03:21:53;61.30;;;34.15;;
23676;SDS011;31493;49.058;12.190;2022-10-18T03:24:20;64.63;;;35.60;;
23676;SDS011;31493;49.058;12.190;2022-10-18T03:26:47;66.80;;;37.22;;
23676;SDS011;31493;49.058;12.190;2022-10-18T03:29:14;78.20;;;41.53;;
23676;SDS011;31493;49.058;12.190;2022-10-18T03:31:41;73.68;;;39.65;;
23676;SDS011;31493;49.058;12.190;2022-10-18T03:34:08;72.18;;;38.97;;
23676;SDS011;31493;49.058;12.190;2022-10-18T03:36:35;74.07;;;41.15;;
23676;SDS011;31493;49.058;12.190;2022-10-18T03:39:04;74.50;;;39.30;;
23676;SDS011;31493;49.058;12.190;2022-10-18T03:41:31;80.57;;;42.97;;
23676;SDS011;31493;49.058;12.190;2022-10-18T03:43:58;75.07;;;41.72;;
23676;SDS011;31493;49.058;12.190;2022-10-18T03:46:25;80.35;;;42.85;;
23676;SDS011;31493;49.058;12.190;2022-10-18T03:48:52;77.45;;;41.83;;
23676;SDS011;31493;49.058;12.190;2022-10-18T03:51:19;73.03;;;40.70;;
23676;SDS011;31493;49.058;12.190;2022-10-18T03:53:46;80.20;;;42.58;;
23676;SDS011;31493;49.058;12.190;2022-10-18T03:56:14;68.80;;;38.65;;
23676;SDS011;31493;49.058;12.190;2022-10-18T03:58:41;72.10;;;40.45;;
23676;SDS011;31493;49.058;12.190;2022-10-18T04:01:08;77.07;;;41.40;;
23676;SDS011;31493;49.058;12.190;2022-10-18T04:03:35;74.88;;;40.95;;
23676;SDS011;31493;49.058;12.190;2022-10-18T04:06:02;76.75;;;41.97;;
23676;SDS011;31493;49.058;12.190;2022-10-18T04:08:30;69.53;;;39.85;;
23676;SDS011;31493;49.058;12.190;2022-10-18T04:10:57;70.25;;;42.03;;
23676;SDS011;31493;49.058;12.190;2022-10-18T04:13:25;75.65;;;41.10;;
23676;SDS011;31493;49.058;12.190;2022-10-18T04:15:52;66.95;;;39.00;;
23676;SDS011;31493;49.058;12.190;2022-10-18T04:18:19;66.32;;;38.40;;
23676;SDS011;31493;49.058;12.190;2022-10-18T04:20:46;69.65;;;38.40;;
23676;SDS011;31493;49.058;12.190;2022-10-18T04:23:13;78.40;;;41.03;;
23676;SDS011;31493;49.058;12.190;2022-10-18T04:25:40;70.03;;;39.75;;
23676;SDS011;31493;49.058;12.190;2022-10-18T04:28:07;65.10;;;39.13;;
23676;SDS011;31493;49.058;12.190;2022-10-18T04:30:35;75.72;;;40.35;;
23676;SDS011;31493;49.058;12.190;2022-10-18T04:33:02;70.43;;;38.72;;
23676;SDS011;31493;49.058;12.190;2022-10-18T04:35:31;71.50;;;40.20;;
23676;SDS011;31493;49.058;12.190;2022-10-18T04:37:58;76.97;;;40.63;;
23676;SDS011;31493;49.058;12.190;2022-10-18T04:40:25;78.85;;;40.28;;
23676;SDS011;31493;49.058;12.190;2022-10-18T04:42:52;71.68;;;40.90;;
23676;SDS011;31493;49.058;12.190;2022-10-18T04:45:19;77.22;;;40.72;;
23676;SDS011;31493;49.058;12.190;2022-10-18T04:47:47;71.50;;;40.60;;
23676;SDS011;31493;49.058;12.190;2022-10-18T04:50:14;81.50;;;43.55;;
23676;SDS011;31493;49.058;12.190;2022-10-18T04:52:41;77.82;;;41.78;;
23676;SDS011;31493;49.058;12.190;2022-10-18T04:55:08;71.97;;;40.70;;
23676;SDS011;31493;49.058;12.190;2022-10-18T04:57:35;72.65;;;40.95;;
23676;SDS011;31493;49.058;12.190;2022-10-18T05:00:03;74.53;;;41.88;;
23676;SDS011;31493;49.058;12.190;2022-10-18T05:02:31;74.88;;;41.50;;
23676;SDS011;31493;49.058;12.190;2022-10-18T05:04:59;68.25;;;39.38;;
23676;SDS011;31493;49.058;12.190;2022-10-18T05:07:26;67.32;;;39.92;;
23676;SDS011;31493;49.058;12.190;2022-10-18T05:09:53;71.28;;;39.33;;
23676;SDS011;31493;49.058;12.190;2022-10-18T05:12:20;68.20;;;38.42;;
23676;SDS011;31493;49.058;12.190;2022-10-18T05:14:47;71.22;;;39.03;;
23676;SDS011;31493;49.058;12.190;2022-10-18T05:17:14;68.38;;;38.28;;
23676;SDS011;31493;49.058;12.190;2022-10-18T05:19:41;66.18;;;36.72;;
23676;SDS011;31493;49.058;12.190;2022-10-18T05:22:10;76.90;;;39.55;;
23676;SDS011;31493;49.058;12.190;2022-10-18T05:24:37;60.88;;;34.78;;
23676;SDS011;31493;49.058;12.190;2022-10-18T05:27:04;69.20;;;37.55;;
23676;SDS011;31493;49.058;12.190;2022-10-18T05:29:31;66.40;;;37.63;;
23676;SDS011;31493;49.058;12.190;2022-10-18T05:31:58;64.05;;;36.85;;
23676;SDS011;31493;49.058;12.190;2022-10-18T05:34:25;65.50;;;35.72;;
23676;SDS011;31493;49.058;12.190;2022-10-18T05:36:56;68.90;;;35.95;;
23676;SDS011;31493;49.058;12.190;2022-10-18T05:39:24;66.07;;;37.60;;
23676;SDS011;31493;49.058;12.190;2022-10-18T05:41:52;62.70;;;35.88;;
23676;SDS011;31493;49.058;12.190;2022-10-18T05:44:19;62.80;;;35.25;;
23676;SDS011;31493;49.058;12.190;2022-10-18T05:46:46;56.33;;;33.08;;
23676;SDS011;31493;49.058;12.190;2022-10-18T05:49:13;59.33;;;34.22;;
23676;SDS011;31493;49.058;12.190;2022-10-18T05:51:40;55.17;;;32.90;;
23676;SDS011;31493;49.058;12.190;2022-10-18T05:54:08;54.70;;;31.35;;
23676;SDS011;31493;49.058;12.190;2022-10-18T05:56:38;51.88;;;30.25;;
23676;SDS011;31493;49.058;12.190;2022-10-18T05:59:05;54.28;;;30.67;;
23676;SDS011;31493;49.058;12.190;2022-10-18T06:01:35;50.58;;;29.02;;
23676;SDS011;31493;49.058;12.190;2022-10-18T06:04:02;48.55;;;29.20;;
23676;SDS011;31493;49.058;12.190;2022-10-18T06:06:29;51.95;;;28.83;;
23676;SDS011;31493;49.058;12.190;2022-10-18T06:08:56;52.00;;;29.27;;
23676;SDS011;31493;49.058;12.190;2022-10-18T06:11:25;48.33;;;28.67;;
23676;SDS011;31493;49.058;12.190;2022-10-18T06:13:53;48.70;;;29.35;;
23676;SDS011;31493;49.058;12.190;2022-10-18T06:16:22;46.33;;;27.50;;
23676;SDS011;31493;49.058;12.190;2022-10-18T06:18:51;43.47;;;27.00;;
23676;SDS011;31493;49.058;12.190;2022-10-18T06:21:19;51.47;;;29.98;;
23676;SDS011;31493;49.058;12.190;2022-10-18T06:23:47;47.05;;;30.75;;
23676;SDS011;31493;49.058;12.190;2022-10-18T06:26:15;47.95;;;29.00;;
23676;SDS011;31493;49.058;12.190;2022-10-18T06:28:42;45.35;;;29.30;;
23676;SDS011;31493;49.058;12.190;2022-10-18T06:31:10;46.40;;;27.30;;
23676;SDS011;31493;49.058;12.190;2022-10-18T06:33:38;42.42;;;26.67;;
23676;SDS011;31493;49.058;12.190;2022-10-18T06:36:06;41.67;;;26.83;;
23676;SDS011;31493;49.058;12.190;2022-10-18T06:38:36;47.00;;;26.50;;
23676;SDS011;31493;49.058;12.190;2022-10-18T06:41:04;50.88;;;28.65;;
23676;SDS011;31493;49.058;12.190;2022-10-18T06:43:32;45.33;;;27.50;;
23676;SDS011;31493;49.058;12.190;2022-10-18T06:45:59;48.22;;;27.60;;
23676;SDS011;31493;49.058;12.190;2022-10-18T06:48:29;55.35;;;30.88;;
23676;SDS011;31493;49.058;12.190;2022-10-18T06:50:57;49.17;;;28.92;;
23676;SDS011;31493;49.058;12.190;2022-10-18T06:55:57;42.72;;;25.95;;
23676;SDS011;31493;49.058;12.190;2022-10-18T06:58:24;47.33;;;28.60;;
23676;SDS011;31493;49.058;12.190;2022-10-18T07:00:51;47.78;;;28.05;;
23676;SDS011;31493;49.058;12.190;2022-10-18T07:03:18;45.70;;;27.73;;
23676;SDS011;31493;49.058;12.190;2022-10-18T07:05:47;44.55;;;26.67;;
23676;SDS011;31493;49.058;12.190;2022-10-18T07:08:14;38.42;;;24.33;;
23676;SDS011;31493;49.058;12.190;2022-10-18T07:10:42;43.97;;;25.40;;
23676;SDS011;31493;49.058;12.190;2022-10-18T07:13:16;44.17;;;27.27;;
23676;SDS011;31493;49.058;12.190;2022-10-18T07:15:43;45.65;;;27.92;;
23676;SDS011;31493;49.058;12.190;2022-10-18T07:18:10;51.75;;;29.40;;
23676;SDS011;31493;49.058;12.190;2022-10-18T07:20:37;54.80;;;30.58;;
23676;SDS011;31493;49.058;12.190;2022-10-18T07:23:05;54.40;;;31.85;;
23676;SDS011;31493;49.058;12.190;2022-10-18T07:25:34;46.17;;;29.08;;
23676;SDS011;31493;49.058;12.190;2022-10-18T07:28:01;44.38;;;27.65;;
23676;SDS011;31493;49.058;12.190;2022-10-18T07:30:28;47.97;;;28.10;;
23676;SDS011;31493;49.058;12.190;2022-10-18T07:32:55;46.45;;;27.48;;
23676;SDS011;31493;49.058;12.190;2022-10-18T07:35:22;40.75;;;25.20;;
23676;SDS011;31493;49.058;12.190;2022-10-18T07:37:49;37.70;;;24.48;;
23676;SDS011;31493;49.058;12.190;2022-10-18T07:40:17;46.88;;;27.52;;
23676;SDS011;31493;49.058;12.190;2022-10-18T07:42:44;50.55;;;29.02;;
23676;SDS011;31493;49.058;12.190;2022-10-18T07:45:11;50.53;;;28.63;;
23676;SDS011;31493;49.058;12.190;2022-10-18T07:47:38;52.83;;;29.35;;
23676;SDS011;31493;49.058;12.190;2022-10-18T07:50:05;53.97;;;29.73;;
23676;SDS011;31493;49.058;12.190;2022-10-18T07:52:33;57.60;;;30.63;;
23676;SDS011;31493;49.058;12.190;2022-10-18T07:55:00;51.72;;;28.23;;
23676;SDS011;31493;49.058;12.190;2022-10-18T07:57:28;51.83;;;30.42;;
23676;SDS011;31493;49.058;12.190;2022-10-18T07:59:55;57.25;;;31.40;;
23676;SDS011;31493;49.058;12.190;2022-10-18T08:02:23;47.25;;;29.85;;
23676;SDS011;31493;49.058;12.190;2022-10-18T08:04:50;49.22;;;28.17;;
23676;SDS011;31493;49.058;12.190;2022-10-18T08:07:17;47.55;;;26.63;;
23676;SDS011;31493;49.058;12.190;2022-10-18T08:09:44;44.75;;;26.95;;
23676;SDS011;31493;49.058;12.190;2022-10-18T08:12:11;51.45;;;28.70;;
23676;SDS011;31493;49.058;12.190;2022-10-18T08:14:41;53.78;;;28.95;;
23676;SDS011;31493;49.058;12.190;2022-10-18T08:17:08;56.75;;;31.35;;
23676;SDS011;31493;49.058;12.190;2022-10-18T08:19:35;54.28;;;30.50;;
23676;SDS011;31493;49.058;12.190;2022-10-18T08:22:02;54.83;;;30.48;;
23676;SDS011;31493;49.058;12.190;2022-10-18T08:24:29;45.38;;;27.92;;
23676;SDS011;31493;49.058;12.190;2022-10-18T08:26:56;51.00;;;29.30;;
23676;SDS011;31493;49.058;12.190;2022-10-18T08:29:23;49.85;;;27.08;;
23676;SDS011;31493;49.058;12.190;2022-10-18T08:31:52;49.85;;;27.13;;
23676;SDS011;31493;49.058;12.190;2022-10-18T08:34:19;49.22;;;29.02;;
23676;SDS011;31493;49.058;12.190;2022-10-18T08:36:46;44.63;;;26.48;;
23676;SDS011;31493;49.058;12.190;2022-10-18T08:39:13;43.78;;;25.10;;
23676;SDS011;31493;49.058;12.190;2022-10-18T08:41:45;39.28;;;24.38;;
23676;SDS011;31493;49.058;12.190;2022-10-18T08:44:23;40.28;;;23.90;;
23676;SDS011;31493;49.058;12.190;2022-10-18T08:46:54;36.72;;;21.98;;
23676;SDS011;31493;49.058;12.190;2022-10-18T08:49:27;38.83;;;23.45;;
23676;SDS011;31493;49.058;12.190;2022-10-18T08:51:57;38.42;;;21.80;;
23676;SDS011;31493;49.058;12.190;2022-10-18T08:54:26;37.65;;;23.17;;
23676;SDS011;31493;49.058;12.190;2022-10-18T08:56:59;36.78;;;22.15;;
23676;SDS011;31493;49.058;12.190;2022-10-18T08:59:30;32.38;;;21.13;;
23676;SDS011;31493;49.058;12.190;2022-10-18T09:02:14;34.97;;;20.73;;
23676;SDS011;31493;49.058;12.190;2022-10-18T09:04:49;38.47;;;20.67;;
23676;SDS011;31493;49.058;12.190;2022-10-18T09:07:26;32.13;;;21.58;;
23676;SDS011;31493;49.058;12.190;2022-10-18T09:10:13;35.17;;;20.58;;
23676;SDS011;31493;49.058;12.190;2022-10-18T09:12:51;33.67;;;20.35;;
23676;SDS011;31493;49.058;12.190;2022-10-18T09:15:33;31.90;;;19.92;;
23676;SDS011;31493;49.058;12.190;2022-10-18T09:18:11;33.40;;;21.15;;
23676;SDS011;31493;49.058;12.190;2022-10-18T09:20:50;35.15;;;21.25;;
23676;SDS011;31493;49.058;12.190;2022-10-18T09:23:23;34.00;;;20.45;;
23676;SDS011;31493;49.058;12.190;2022-10-18T09:26:05;31.90;;;19.50;;
23676;SDS011;31493;49.058;12.190;2022-10-18T09:28:39;28.63;;;18.77;;
23676;SDS011;31493;49.058;12.190;2022-10-18T09:31:14;28.40;;;18.85;;
23676;SDS011;31493;49.058;12.190;2022-10-18T09:33:49;29.05;;;17.90;;
23676;SDS011;31493;49.058;12.190;2022-10-18T09:36:22;28.27;;;19.00;;
23676;SDS011;31493;49.058;12.190;2022-10-18T09:38:52;29.20;;;18.88;;
23676;SDS011;31493;49.058;12.190;2022-10-18T09:41:23;26.02;;;19.10;;
23676;SDS011;31493;49.058;12.190;2022-10-18T09:43:54;35.53;;;21.70;;
23676;SDS011;31493;49.058;12.190;2022-10-18T09:46:25;28.70;;;20.10;;
23676;SDS011;31493;49.058;12.190;2022-10-18T09:48:57;33.85;;;20.33;;
23676;SDS011;31493;49.058;12.190;2022-10-18T09:51:29;26.80;;;20.15;;
23676;SDS011;31493;49.058;12.190;2022-10-18T09:54:07;31.95;;;21.00;;
23676;SDS011;31493;49.058;12.190;2022-10-18T09:56:43;28.77;;;20.38;;
23676;SDS011;31493;49.058;12.190;2022-10-18T09:59:25;32.47;;;21.75;;
23676;SDS011;31493;49.058;12.190;2022-10-18T10:01:57;37.45;;;24.88;;
23676;SDS011;31493;49.058;12.190;2022-10-18T10:04:25;34.65;;;23.25;;
23676;SDS011;31493;49.058;12.190;2022-10-18T10:06:53;34.22;;;24.15;;
23676;SDS011;31493;49.058;12.190;2022-10-18T10:09:24;36.67;;;23.20;;
23676;SDS011;31493;49.058;12.190;2022-10-18T10:11:54;35.85;;;22.40;;
23676;SDS011;31493;49.058;12.190;2022-10-18T10:14:23;33.03;;;21.02;;
23676;SDS011;31493;49.058;12.190;2022-10-18T10:16:52;27.77;;;19.27;;
23676;SDS011;31493;49.058;12.190;2022-10-18T10:19:27;29.58;;;18.70;;
23676;SDS011;31493;49.058;12.190;2022-10-18T10:21:58;27.75;;;17.13;;
23676;SDS011;31493;49.058;12.190;2022-10-18T10:24:31;27.35;;;18.90;;
23676;SDS011;31493;49.058;12.190;2022-10-18T10:27:02;28.85;;;20.33;;
23676;SDS011;31493;49.058;12.190;2022-10-18T10:29:51;26.60;;;18.27;;
23676;SDS011;31493;49.058;12.190;2022-10-18T10:32:22;29.20;;;20.58;;
23676;SDS011;31493;49.058;12.190;2022-10-18T10:34:52;31.20;;;20.77;;
23676;SDS011;31493;49.058;12.190;2022-10-18T10:37:23;26.35;;;19.35;;
23676;SDS011;31493;49.058;12.190;2022-10-18T10:40:06;27.80;;;20.73;;
23676;SDS011;31493;49.058;12.190;2022-10-18T10:42:53;25.50;;;19.20;;
23676;SDS011;31493;49.058;12.190;2022-10-18T10:45:28;25.67;;;18.02;;
23676;SDS011;31493;49.058;12.190;2022-10-18T10:48:05;25.67;;;19.02;;
23676;SDS011;31493;49.058;12.190;2022-10-18T10:50:48;20.67;;;17.38;;
23676;SDS011;31493;49.058;12.190;2022-10-18T10:53:27;25.60;;;17.08;;
23676;SDS011;31493;49.058;12.190;2022-10-18T10:58:24;22.23;;;15.70;;
23676;SDS011;31493;49.058;12.190;2022-10-18T11:00:53;25.60;;;16.13;;
23676;SDS011;31493;49.058;12.190;2022-10-18T11:05:51;22.50;;;15.75;;
23676;SDS011;31493;49.058;12.190;2022-10-18T11:08:21;20.58;;;15.68;;
23676;SDS011;31493;49.058;12.190;2022-10-18T11:10:54;22.02;;;15.88;;
23676;SDS011;31493;49.058;12.190;2022-10-18T11:13:32;23.02;;;15.13;;
23676;SDS011;31493;49.058;12.190;2022-10-18T11:16:12;20.88;;;15.35;;
23676;SDS011;31493;49.058;12.190;2022-10-18T11:18:42;18.27;;;14.48;;
23676;SDS011;31493;49.058;12.190;2022-10-18T11:21:16;16.85;;;13.48;;
23676;SDS011;31493;49.058;12.190;2022-10-18T11:23:47;18.55;;;13.77;;
23676;SDS011;31493;49.058;12.190;2022-10-18T11:26:23;17.25;;;13.73;;
23676;SDS011;31493;49.058;12.190;2022-10-18T11:29:04;18.17;;;14.55;;
23676;SDS011;31493;49.058;12.190;2022-10-18T11:31:40;18.33;;;13.60;;
23676;SDS011;31493;49.058;12.190;2022-10-18T11:34:18;28.77;;;15.25;;
23676;SDS011;31493;49.058;12.190;2022-10-18T11:36:56;23.88;;;14.98;;
23676;SDS011;31493;49.058;12.190;2022-10-18T11:42:05;19.30;;;13.60;;
23676;SDS011;31493;49.058;12.190;2022-10-18T11:44:38;18.48;;;13.25;;
23676;SDS011;31493;49.058;12.190;2022-10-18T11:47:12;18.92;;;12.07;;
23676;SDS011;31493;49.058;12.190;2022-10-18T11:49:55;20.33;;;13.57;;
23676;SDS011;31493;49.058;12.190;2022-10-18T11:52:36;19.80;;;12.60;;
23676;SDS011;31493;49.058;12.190;2022-10-18T11:55:19;21.65;;;13.27;;
23676;SDS011;31493;49.058;12.190;2022-10-18T11:57:54;22.13;;;13.60;;
23676;SDS011;31493;49.058;12.190;2022-10-18T12:00:33;21.23;;;14.45;;
23676;SDS011;31493;49.058;12.190;2022-10-18T12:03:23;17.45;;;14.02;;
23676;SDS011;31493;49.058;12.190;2022-10-18T12:05:56;19.80;;;15.00;;
23676;SDS011;31493;49.058;12.190;2022-10-18T12:08:30;19.30;;;15.88;;
23676;SDS011;31493;49.058;12.190;2022-10-18T12:11:01;23.02;;;16.67;;
23676;SDS011;31493;49.058;12.190;2022-10-18T12:13:36;23.10;;;16.27;;
23676;SDS011;31493;49.058;12.190;2022-10-18T12:16:07;23.45;;;16.95;;
23676;SDS011;31493;49.058;12.190;2022-10-18T12:18:35;22.27;;;16.95;;
23676;SDS011;31493;49.058;12.190;2022-10-18T12:21:09;23.85;;;18.23;;
23676;SDS011;31493;49.058;12.190;2022-10-18T12:23:41;21.38;;;16.42;;
23676;SDS011;31493;49.058;12.190;2022-10-18T12:26:12;25.42;;;17.65;;
23676;SDS011;31493;49.058;12.190;2022-10-18T12:28:43;26.92;;;16.55;;
23676;SDS011;31493;49.058;12.190;2022-10-18T12:31:19;21.73;;;16.60;;
23676;SDS011;31493;49.058;12.190;2022-10-18T12:33:52;22.70;;;17.92;;
23676;SDS011;31493;49.058;12.190;2022-10-18T12:36:29;25.35;;;17.20;;
23676;SDS011;31493;49.058;12.190;2022-10-18T12:39:11;22.77;;;15.90;;
23676;SDS011;31493;49.058;12.190;2022-10-18T12:41:45;21.45;;;16.45;;
23676;SDS011;31493;49.058;12.190;2022-10-18T12:44:17;25.83;;;16.38;;
23676;SDS011;31493;49.058;12.190;2022-10-18T12:46:47;23.58;;;17.10;;
23676;SDS011;31493;49.058;12.190;2022-10-18T12:49:17;21.30;;;16.05;;
23676;SDS011;31493;49.058;12.190;2022-10-18T12:51:48;19.33;;;16.08;;
23676;SDS011;31493;49.058;12.190;2022-10-18T12:54:19;28.85;;;16.75;;
23676;SDS011;31493;49.058;12.190;2022-10-18T12:56:49;22.25;;;15.90;;
23676;SDS011;31493;49.058;12.190;2022-10-18T13:02:24;20.98;;;15.65;;
23676;SDS011;31493;49.058;12.190;2022-10-18T13:04:53;22.27;;;16.08;;
23676;SDS011;31493;49.058;12.190;2022-10-18T13:07:31;21.55;;;15.25;;
23676;SDS011;31493;49.058;12.190;2022-10-18T13:13:15;30.35;;;14.38;;
23676;SDS011;31493;49.058;12.190;2022-10-18T13:15:51;27.00;;;14.68;;
23676;SDS011;31493;49.058;12.190;2022-10-18T13:18:24;17.90;;;13.40;;
23676;SDS011;31493;49.058;12.190;2022-10-18T13:20:56;20.38;;;13.35;;
23676;SDS011;31493;49.058;12.190;2022-10-18T13:23:38;18.02;;;13.98;;
23676;SDS011;31493;49.058;12.190;2022-10-18T13:26:17;19.02;;;12.45;;
23676;SDS011;31493;49.058;12.190;2022-10-18T13:28:51;17.95;;;13.82;;
23676;SDS011;31493;49.058;12.190;2022-10-18T13:31:29;26.80;;;13.98;;
23676;SDS011;31493;49.058;12.190;2022-10-18T13:34:24;27.27;;;14.60;;
23676;SDS011;31493;49.058;12.190;2022-10-18T13:36:57;19.60;;;14.05;;
23676;SDS011;31493;49.058;12.190;2022-10-18T13:39:25;19.63;;;13.32;;
23676;SDS011;31493;49.058;12.190;2022-10-18T13:51:10;23.00;;;16.67;;
23676;SDS011;31493;49.058;12.190;2022-10-18T13:53:54;23.23;;;15.57;;
23676;SDS011;31493;49.058;12.190;2022-10-18T13:56:33;22.33;;;15.93;;
23676;SDS011;31493;49.058;12.190;2022-10-18T13:59:25;21.70;;;16.23;;
23676;SDS011;31493;49.058;12.190;2022-10-18T14:02:15;18.25;;;15.23;;
23676;SDS011;31493;49.058;12.190;2022-10-18T14:04:58;19.08;;;14.65;;
23676;SDS011;31493;49.058;12.190;2022-10-18T14:07:35;29.25;;;16.10;;
23676;SDS011;31493;49.058;12.190;2022-10-18T14:10:03;19.95;;;15.05;;
23676;SDS011;31493;49.058;12.190;2022-10-18T14:12:42;18.50;;;13.57;;
23676;SDS011;31493;49.058;12.190;2022-10-18T14:15:14;30.33;;;12.98;;
23676;SDS011;31493;49.058;12.190;2022-10-18T14:17:45;20.02;;;12.95;;
23676;SDS011;31493;49.058;12.190;2022-10-18T14:20:19;20.40;;;14.35;;
23676;SDS011;31493;49.058;12.190;2022-10-18T14:22:52;21.08;;;14.48;;
23676;SDS011;31493;49.058;12.190;2022-10-18T14:25:25;19.23;;;15.13;;
23676;SDS011;31493;49.058;12.190;2022-10-18T14:28:08;21.58;;;15.60;;
23676;SDS011;31493;49.058;12.190;2022-10-18T14:33:27;19.58;;;15.18;;
23676;SDS011;31493;49.058;12.190;2022-10-18T14:35:59;24.27;;;15.13;;
23676;SDS011;31493;49.058;12.190;2022-10-18T14:38:28;20.90;;;15.20;;
23676;SDS011;31493;49.058;12.190;2022-10-18T14:41:06;20.33;;;15.00;;
23676;SDS011;31493;49.058;12.190;2022-10-18T14:43:40;28.33;;;14.32;;
23676;SDS011;31493;49.058;12.190;2022-10-18T14:46:13;23.98;;;15.65;;
23676;SDS011;31493;49.058;12.190;2022-10-18T14:48:50;20.00;;;14.50;;
23676;SDS011;31493;49.058;12.190;2022-10-18T14:51:18;22.75;;;15.35;;
23676;SDS011;31493;49.058;12.190;2022-10-18T14:53:45;23.45;;;16.48;;
23676;SDS011;31493;49.058;12.190;2022-10-18T14:56:18;22.85;;;15.27;;
23676;SDS011;31493;49.058;12.190;2022-10-18T14:58:47;16.90;;;14.13;;
23676;SDS011;31493;49.058;12.190;2022-10-18T15:01:16;16.95;;;12.07;;
23676;SDS011;31493;49.058;12.190;2022-10-18T15:03:45;18.13;;;12.77;;